الصفحة الرئيسية
METAR-TAF:

METAR-TAF

مطار :

Yap, مايكرونيزيا

دائرة عرض: 09-29N, خط طول: 138-05E, ارتفاع: 28 متر

مراقبة الطقس الحالي

تاريخ ووقت الإصدار 1ساعة و 20 دقيقة قبل الساعة 14:54UTC
ريح 2 عقدةمن اتجاهات متغيرة
درجة الحرارة 26°درجة مئوية
الرطوبة 84%
ضغط 1008 hPa
الرؤية: 19.3 كم
غيوم قليلة على ارتفاع 1600 قدم
غيوم مفككة على ارتفاع 30000 قدم

METAR: PTYA 221454Z VRB02KT 12SM FEW016 BKN300 26/23 A2978 RMK SLP086 8/101 T02640234 403070256 58002

زمن: 02:14 (16:14 UTC)

توقعات

تاريخ ووقت الإصدار 4ساعات و 6 دقيقة قبل الساعة 12:08UTC
التوقعات صالحة من22 الساعة 12 UTC إلى 23 الساعة 12 UTC
ريح 9 عقدة من الشرق/الشمال الشرقي
الرؤية: 10 كم
غيوم متفرقة على ارتفاع 1800 قدم
غيوم متفرقة على ارتفاع 13000 قدم
زخات في الجوار

TAF: PTYA 221208Z 2212/2312 06009KT P6SM VCSH SCT018 SCT130

أرصاد الطقس والتوقعات من أكثر من 4000 مطار (تقارير الطقس للمطار METAR والتنبؤ بالطقس بالمطارTAF).

المحطات المتاحة هي النقط الصفراء والحمراء على الخريطة.

حرك المؤشر فوق النقطة لمعرفة اسم المحطة.

ثم انقر لمعرفة أرصاد وتوقعات الطقس.

لتغيير الخارطة: اضغط على الأزرار الخضراء مع رمز الصليب الأسود للتكبير. على الزر الأخضر مع شرطة للتصغير، أو على الأسهم الخضراء للخرائط المجاورة.


METAR-TAF: